sensor_id;sensor_type;location;lat;lon;timestamp;pressure;altitude;pressure_sealevel;temperature;humidity
82388;BME280;72027;47.420;9.310;2023-08-24T00:01:16;93638.22;;;18.71;69.33
82388;BME280;72027;47.420;9.310;2023-08-24T00:03:44;93637.72;;;18.67;70.22
82388;BME280;72027;47.420;9.310;2023-08-24T00:06:12;93637.72;;;18.61;70.22
82388;BME280;72027;47.420;9.310;2023-08-24T00:08:40;93639.28;;;18.57;69.97
82388;BME280;72027;47.420;9.310;2023-08-24T00:11:09;93639.78;;;18.49;70.47
82388;BME280;72027;47.420;9.310;2023-08-24T00:13:41;93633.66;;;18.45;70.13
82388;BME280;72027;47.420;9.310;2023-08-24T00:16:12;93632.41;;;18.41;70.89
82388;BME280;72027;47.420;9.310;2023-08-24T00:18:40;93623.47;;;18.37;70.45
82388;BME280;72027;47.420;9.310;2023-08-24T00:21:08;93619.41;;;18.32;71.41
82388;BME280;72027;47.420;9.310;2023-08-24T00:23:36;93627.59;;;18.30;70.62
82388;BME280;72027;47.420;9.310;2023-08-24T00:26:05;93620.16;;;18.27;71.00
82388;BME280;72027;47.420;9.310;2023-08-24T00:28:34;93623.25;;;18.23;70.81
82388;BME280;72027;47.420;9.310;2023-08-24T00:31:01;93615.09;;;18.20;71.13
82388;BME280;72027;47.420;9.310;2023-08-24T00:33:29;93616.63;;;18.15;70.79
82388;BME280;72027;47.420;9.310;2023-08-24T00:35:59;93623.53;;;18.09;70.88
82388;BME280;72027;47.420;9.310;2023-08-24T00:38:27;93612.53;;;18.05;71.33
82388;BME280;72027;47.420;9.310;2023-08-24T00:40:57;93608.22;;;18.04;71.10
82388;BME280;72027;47.420;9.310;2023-08-24T00:43:25;93605.41;;;18.04;71.01
82388;BME280;72027;47.420;9.310;2023-08-24T00:45:56;93599.81;;;18.04;70.85
82388;BME280;72027;47.420;9.310;2023-08-24T00:48:27;93600.31;;;18.02;70.70
82388;BME280;72027;47.420;9.310;2023-08-24T00:50:55;93600.84;;;18.01;70.46
82388;BME280;72027;47.420;9.310;2023-08-24T00:53:24;93600.06;;;18.00;70.14
82388;BME280;72027;47.420;9.310;2023-08-24T00:55:53;93600.06;;;18.00;70.38
82388;BME280;72027;47.420;9.310;2023-08-24T00:58:21;93593.69;;;18.00;70.15
82388;BME280;72027;47.420;9.310;2023-08-24T01:00:50;93593.69;;;18.00;70.08
82388;BME280;72027;47.420;9.310;2023-08-24T01:03:22;93592.94;;;17.99;70.40
82388;BME280;72027;47.420;9.310;2023-08-24T01:05:50;93597.78;;;17.99;70.87
82388;BME280;72027;47.420;9.310;2023-08-24T01:08:19;93586.56;;;17.99;69.75
82388;BME280;72027;47.420;9.310;2023-08-24T01:10:54;93586.56;;;17.99;70.22
82388;BME280;72027;47.420;9.310;2023-08-24T01:13:30;93589.38;;;17.99;70.68
82388;BME280;72027;47.420;9.310;2023-08-24T01:16:04;93590.13;;;17.99;70.10
82388;BME280;72027;47.420;9.310;2023-08-24T01:18:35;93583.75;;;17.99;70.76
82388;BME280;72027;47.420;9.310;2023-08-24T01:21:05;93595.47;;;17.97;69.95
82388;BME280;72027;47.420;9.310;2023-08-24T01:23:37;93587.31;;;17.94;70.11
82388;BME280;72027;47.420;9.310;2023-08-24T01:26:13;93590.13;;;17.94;70.14
82388;BME280;72027;47.420;9.310;2023-08-24T01:28:44;93594.47;;;17.89;70.48
82388;BME280;72027;47.420;9.310;2023-08-24T01:31:13;93590.63;;;17.87;70.32
82388;BME280;72027;47.420;9.310;2023-08-24T01:33:41;93587.34;;;17.82;70.81
82388;BME280;72027;47.420;9.310;2023-08-24T01:36:11;93583.78;;;17.82;70.73
82388;BME280;72027;47.420;9.310;2023-08-24T01:38:40;93573.31;;;17.77;71.33
82388;BME280;72027;47.420;9.310;2023-08-24T01:41:14;93576.59;;;17.75;70.68
82388;BME280;72027;47.420;9.310;2023-08-24T01:43:49;93576.88;;;17.72;71.59
82388;BME280;72027;47.420;9.310;2023-08-24T01:46:20;93575.59;;;17.67;71.16
82388;BME280;72027;47.420;9.310;2023-08-24T01:48:48;93578.13;;;17.65;71.34
82388;BME280;72027;47.420;9.310;2023-08-24T01:51:18;93572.50;;;17.65;71.50
82388;BME280;72027;47.420;9.310;2023-08-24T01:53:47;93565.63;;;17.60;71.57
82388;BME280;72027;47.420;9.310;2023-08-24T01:56:17;93572.25;;;17.57;72.38
82388;BME280;72027;47.420;9.310;2023-08-24T01:58:45;93577.09;;;17.51;72.04
82388;BME280;72027;47.420;9.310;2023-08-24T02:01:13;93561.31;;;17.48;71.71
82388;BME280;72027;47.420;9.310;2023-08-24T02:03:42;93545.53;;;17.45;72.11
82388;BME280;72027;47.420;9.310;2023-08-24T02:06:10;93553.66;;;17.37;73.30
82388;BME280;72027;47.420;9.310;2023-08-24T02:08:39;93552.09;;;17.31;73.13
82388;BME280;72027;47.420;9.310;2023-08-24T02:11:07;93550.59;;;17.24;73.10
82388;BME280;72027;47.420;9.310;2023-08-24T02:13:36;93546.75;;;17.22;73.25
82388;BME280;72027;47.420;9.310;2023-08-24T02:16:04;93543.22;;;17.21;73.34
82388;BME280;72027;47.420;9.310;2023-08-24T02:18:35;93550.31;;;17.22;73.18
82388;BME280;72027;47.420;9.310;2023-08-24T02:21:07;93542.41;;;17.21;73.44
82388;BME280;72027;47.420;9.310;2023-08-24T02:23:35;93533.78;;;17.19;73.57
82388;BME280;72027;47.420;9.310;2023-08-24T02:26:04;93531.47;;;17.17;73.11
82388;BME280;72027;47.420;9.310;2023-08-24T02:28:32;93529.44;;;17.17;73.61
82388;BME280;72027;47.420;9.310;2023-08-24T02:31:02;93523.09;;;17.17;73.07
82388;BME280;72027;47.420;9.310;2023-08-24T02:33:29;93520.28;;;17.17;73.44
82388;BME280;72027;47.420;9.310;2023-08-24T02:35:57;93525.13;;;17.16;73.38
82388;BME280;72027;47.420;9.310;2023-08-24T02:38:25;93506.81;;;17.15;73.54
82388;BME280;72027;47.420;9.310;2023-08-24T02:41:00;93494.81;;;17.15;73.82
82388;BME280;72027;47.420;9.310;2023-08-24T02:43:29;93502.47;;;17.09;73.24
82388;BME280;72027;47.420;9.310;2023-08-24T02:46:02;93494.06;;;17.03;74.05
82388;BME280;72027;47.420;9.310;2023-08-24T02:48:31;93489.22;;;16.98;74.09
82388;BME280;72027;47.420;9.310;2023-08-24T02:51:02;93483.63;;;16.98;73.84
82388;BME280;72027;47.420;9.310;2023-08-24T02:53:31;93488.72;;;17.00;73.86
82388;BME280;72027;47.420;9.310;2023-08-24T02:55:59;93478.78;;;17.04;73.95
82388;BME280;72027;47.420;9.310;2023-08-24T02:58:28;93479.56;;;17.05;73.91
82388;BME280;72027;47.420;9.310;2023-08-24T03:00:56;93492.28;;;17.06;73.89
82388;BME280;72027;47.420;9.310;2023-08-24T03:03:25;93479.03;;;17.06;73.43
82388;BME280;72027;47.420;9.310;2023-08-24T03:05:56;93475.50;;;17.06;73.31
82388;BME280;72027;47.420;9.310;2023-08-24T03:08:26;93487.19;;;17.04;74.29
82388;BME280;72027;47.420;9.310;2023-08-24T03:10:55;93486.94;;;17.02;73.37
82388;BME280;72027;47.420;9.310;2023-08-24T03:13:23;93475.50;;;17.00;74.37
82388;BME280;72027;47.420;9.310;2023-08-24T03:15:53;93475.50;;;17.00;74.57
82388;BME280;72027;47.420;9.310;2023-08-24T03:18:22;93484.63;;;17.01;73.87
82388;BME280;72027;47.420;9.310;2023-08-24T03:20:52;93474.97;;;17.02;73.70
82388;BME280;72027;47.420;9.310;2023-08-24T03:23:19;93487.97;;;17.05;73.06
82388;BME280;72027;47.420;9.310;2023-08-24T03:25:47;93492.28;;;17.06;74.09
82388;BME280;72027;47.420;9.310;2023-08-24T03:28:15;93481.09;;;17.06;73.88
82388;BME280;72027;47.420;9.310;2023-08-24T03:30:48;93480.31;;;17.05;73.85
82388;BME280;72027;47.420;9.310;2023-08-24T03:33:16;93479.56;;;17.05;73.67
82388;BME280;72027;47.420;9.310;2023-08-24T03:35:43;93491.00;;;17.01;74.15
82388;BME280;72027;47.420;9.310;2023-08-24T03:38:13;93486.41;;;16.98;73.33
82388;BME280;72027;47.420;9.310;2023-08-24T03:40:41;93483.88;;;16.94;73.74
82388;BME280;72027;47.420;9.310;2023-08-24T03:43:09;93475.72;;;16.91;74.05
82388;BME280;72027;47.420;9.310;2023-08-24T03:45:37;93480.28;;;16.88;74.10
82388;BME280;72027;47.420;9.310;2023-08-24T03:48:05;93477.75;;;16.85;74.88
82388;BME280;72027;47.420;9.310;2023-08-24T03:50:33;93470.38;;;16.82;74.83
82388;BME280;72027;47.420;9.310;2023-08-24T03:53:01;93475.69;;;16.80;74.88
82388;BME280;72027;47.420;9.310;2023-08-24T03:55:30;93474.66;;;16.77;74.71
82388;BME280;72027;47.420;9.310;2023-08-24T03:57:59;93476.22;;;16.78;75.34
82388;BME280;72027;47.420;9.310;2023-08-24T04:00:27;93478.72;;;16.76;74.73
82388;BME280;72027;47.420;9.310;2023-08-24T04:02:54;93469.56;;;16.76;74.43
82388;BME280;72027;47.420;9.310;2023-08-24T04:05:25;93478.72;;;16.76;74.74
82388;BME280;72027;47.420;9.310;2023-08-24T04:07:52;93471.84;;;16.71;74.74
82388;BME280;72027;47.420;9.310;2023-08-24T04:10:20;93471.84;;;16.71;74.23
82388;BME280;72027;47.420;9.310;2023-08-24T04:12:49;93483.78;;;16.72;74.35
82388;BME280;72027;47.420;9.310;2023-08-24T04:15:19;93478.19;;;16.72;74.96
82388;BME280;72027;47.420;9.310;2023-08-24T04:17:47;93476.91;;;16.67;74.46
82388;BME280;72027;47.420;9.310;2023-08-24T04:20:16;93482.25;;;16.65;74.90
82388;BME280;72027;47.420;9.310;2023-08-24T04:22:43;93488.34;;;16.64;74.66
82388;BME280;72027;47.420;9.310;2023-08-24T04:25:11;93491.59;;;16.57;74.88
82388;BME280;72027;47.420;9.310;2023-08-24T04:27:39;93498.47;;;16.56;74.92
82388;BME280;72027;47.420;9.310;2023-08-24T04:30:09;93489.81;;;16.54;74.06
82388;BME280;72027;47.420;9.310;2023-08-24T04:32:38;93491.38;;;16.55;73.89
82388;BME280;72027;47.420;9.310;2023-08-24T04:35:07;93488.56;;;16.55;74.07
82388;BME280;72027;47.420;9.310;2023-08-24T04:37:35;93487.78;;;16.54;74.43
82388;BME280;72027;47.420;9.310;2023-08-24T04:40:04;93491.84;;;16.53;75.26
82388;BME280;72027;47.420;9.310;2023-08-24T04:42:33;93495.19;;;16.51;75.30
82388;BME280;72027;47.420;9.310;2023-08-24T04:45:01;93498.47;;;16.50;75.00
82388;BME280;72027;47.420;9.310;2023-08-24T04:47:30;93498.94;;;16.48;74.95
82388;BME280;72027;47.420;9.310;2023-08-24T04:49:58;93491.09;;;16.47;75.59
82388;BME280;72027;47.420;9.310;2023-08-24T04:52:26;93490.31;;;16.46;75.86
82388;BME280;72027;47.420;9.310;2023-08-24T04:54:54;93490.06;;;16.44;75.39
82388;BME280;72027;47.420;9.310;2023-08-24T04:57:22;93482.91;;;16.43;76.05
82388;BME280;72027;47.420;9.310;2023-08-24T04:59:51;93482.91;;;16.43;75.76
82388;BME280;72027;47.420;9.310;2023-08-24T05:02:19;93477.56;;;16.40;75.82
82388;BME280;72027;47.420;9.310;2023-08-24T05:04:48;93473.78;;;16.43;75.76
82388;BME280;72027;47.420;9.310;2023-08-24T05:07:15;93468.94;;;16.43;76.19
82388;BME280;72027;47.420;9.310;2023-08-24T05:09:44;93468.97;;;16.49;76.43
82388;BME280;72027;47.420;9.310;2023-08-24T05:12:11;93475.84;;;16.54;75.79
82388;BME280;72027;47.420;9.310;2023-08-24T05:14:39;93475.34;;;16.55;76.40
82388;BME280;72027;47.420;9.310;2023-08-24T05:17:07;93472.31;;;16.59;75.93
82388;BME280;72027;47.420;9.310;2023-08-24T05:19:34;93477.91;;;16.64;77.01
82388;BME280;72027;47.420;9.310;2023-08-24T05:22:04;93476.22;;;16.78;76.29
82388;BME280;72027;47.420;9.310;2023-08-24T05:24:31;93478.50;;;16.85;76.25
82388;BME280;72027;47.420;9.310;2023-08-24T05:26:59;93483.34;;;16.90;75.89
82388;BME280;72027;47.420;9.310;2023-08-24T05:29:27;93478.78;;;16.93;76.17
82388;BME280;72027;47.420;9.310;2023-08-24T05:31:54;93472.91;;;16.97;75.96
82388;BME280;72027;47.420;9.310;2023-08-24T05:34:22;93483.63;;;17.04;76.06
82388;BME280;72027;47.420;9.310;2023-08-24T05:36:50;93481.09;;;17.11;75.13
82388;BME280;72027;47.420;9.310;2023-08-24T05:39:19;93484.16;;;17.19;74.83
82388;BME280;72027;47.420;9.310;2023-08-24T05:41:50;93480.34;;;17.28;75.33
82388;BME280;72027;47.420;9.310;2023-08-24T05:44:18;93489.25;;;17.37;75.92
82388;BME280;72027;47.420;9.310;2023-08-24T05:46:46;93479.06;;;17.46;75.43
82388;BME280;72027;47.420;9.310;2023-08-24T05:49:14;93475.78;;;17.53;73.75
82388;BME280;72027;47.420;9.310;2023-08-24T05:51:41;93471.69;;;17.59;72.80
82388;BME280;72027;47.420;9.310;2023-08-24T05:54:10;93473.47;;;17.63;71.05
82388;BME280;72027;47.420;9.310;2023-08-24T05:56:41;93471.66;;;17.71;71.35
82388;BME280;72027;47.420;9.310;2023-08-24T05:59:08;93478.31;;;17.79;71.42
82388;BME280;72027;47.420;9.310;2023-08-24T06:01:36;93470.41;;;17.89;71.46
82388;BME280;72027;47.420;9.310;2023-08-24T06:04:05;93469.88;;;18.01;70.71
82388;BME280;72027;47.420;9.310;2023-08-24T06:06:33;93473.66;;;18.15;70.52
82388;BME280;72027;47.420;9.310;2023-08-24T06:09:01;93468.50;;;18.31;69.88
82388;BME280;72027;47.420;9.310;2023-08-24T06:11:30;93473.00;;;18.51;70.47
82388;BME280;72027;47.420;9.310;2023-08-24T06:13:59;93467.56;;;18.69;70.73
82388;BME280;72027;47.420;9.310;2023-08-24T06:16:27;93471.31;;;18.89;70.24
82388;BME280;72027;47.420;9.310;2023-08-24T06:18:55;93466.34;;;19.06;69.17
82388;BME280;72027;47.420;9.310;2023-08-24T06:21:23;93469.81;;;19.24;68.52
82388;BME280;72027;47.420;9.310;2023-08-24T06:23:51;93454.88;;;19.40;67.57
82388;BME280;72027;47.420;9.310;2023-08-24T06:26:18;93458.34;;;19.52;66.19
82388;BME280;72027;47.420;9.310;2023-08-24T06:28:46;93457.50;;;19.63;65.70
82388;BME280;72027;47.420;9.310;2023-08-24T06:31:16;93464.34;;;19.73;65.37
82388;BME280;72027;47.420;9.310;2023-08-24T06:33:43;93459.66;;;19.81;65.63
82388;BME280;72027;47.420;9.310;2023-08-24T06:36:12;93451.97;;;19.87;64.80
82388;BME280;72027;47.420;9.310;2023-08-24T06:38:39;93454.41;;;19.96;65.88
82388;BME280;72027;47.420;9.310;2023-08-24T06:41:07;93457.66;;;20.06;66.09
82388;BME280;72027;47.420;9.310;2023-08-24T06:43:38;93450.91;;;20.15;66.17
82388;BME280;72027;47.420;9.310;2023-08-24T06:46:06;93448.50;;;20.24;65.55
82388;BME280;72027;47.420;9.310;2023-08-24T06:48:36;93450.94;;;20.34;65.24
82388;BME280;72027;47.420;9.310;2023-08-24T06:51:07;93452.84;;;20.44;65.03
82388;BME280;72027;47.420;9.310;2023-08-24T06:53:35;93442.53;;;20.53;64.56
82388;BME280;72027;47.420;9.310;2023-08-24T06:56:03;93441.97;;;20.60;64.05
82388;BME280;72027;47.420;9.310;2023-08-24T06:58:31;93439.31;;;20.67;64.08
82388;BME280;72027;47.420;9.310;2023-08-24T07:00:58;93440.44;;;20.78;64.37
82388;BME280;72027;47.420;9.310;2023-08-24T07:03:26;93441.59;;;20.88;64.75
82388;BME280;72027;47.420;9.310;2023-08-24T07:05:55;93443.03;;;20.95;64.72
82388;BME280;72027;47.420;9.310;2023-08-24T07:08:23;93448.81;;;21.02;64.42
82388;BME280;72027;47.420;9.310;2023-08-24T07:10:51;93444.31;;;21.13;64.64
82388;BME280;72027;47.420;9.310;2023-08-24T07:13:18;93443.91;;;21.22;64.26
82388;BME280;72027;47.420;9.310;2023-08-24T07:15:46;93440.16;;;21.32;63.63
82388;BME280;72027;47.420;9.310;2023-08-24T07:18:14;93438.72;;;21.45;63.49
82388;BME280;72027;47.420;9.310;2023-08-24T07:20:42;93436.47;;;21.57;63.83
82388;BME280;72027;47.420;9.310;2023-08-24T07:23:11;93438.28;;;21.73;63.76
82388;BME280;72027;47.420;9.310;2023-08-24T07:25:39;93445.13;;;21.91;63.94
82388;BME280;72027;47.420;9.310;2023-08-24T07:28:07;93444.81;;;22.08;62.59
82388;BME280;72027;47.420;9.310;2023-08-24T07:30:36;93449.94;;;22.23;63.22
82388;BME280;72027;47.420;9.310;2023-08-24T07:33:04;93446.50;;;22.43;63.13
82388;BME280;72027;47.420;9.310;2023-08-24T07:35:32;93441.91;;;22.67;62.87
82388;BME280;72027;47.420;9.310;2023-08-24T07:38:00;93438.19;;;22.85;62.28
82388;BME280;72027;47.420;9.310;2023-08-24T07:40:29;93450.66;;;23.03;60.89
82388;BME280;72027;47.420;9.310;2023-08-24T07:42:57;93448.56;;;23.17;59.98
82388;BME280;72027;47.420;9.310;2023-08-24T07:45:25;93451.13;;;23.28;60.40
82388;BME280;72027;47.420;9.310;2023-08-24T07:47:53;93450.53;;;23.64;59.03
82388;BME280;72027;47.420;9.310;2023-08-24T07:50:22;93454.94;;;24.14;58.33
82388;BME280;72027;47.420;9.310;2023-08-24T07:52:50;93459.47;;;24.67;57.93
82388;BME280;72027;47.420;9.310;2023-08-24T07:55:20;93456.16;;;25.20;58.18
82388;BME280;72027;47.420;9.310;2023-08-24T07:57:49;93459.88;;;25.67;56.18
82388;BME280;72027;47.420;9.310;2023-08-24T08:00:18;93458.78;;;26.08;55.98
82388;BME280;72027;47.420;9.310;2023-08-24T08:02:45;93463.69;;;26.46;54.16
82388;BME280;72027;47.420;9.310;2023-08-24T08:05:13;93463.09;;;26.78;54.86
82388;BME280;72027;47.420;9.310;2023-08-24T08:07:41;93465.25;;;27.11;54.21
82388;BME280;72027;47.420;9.310;2023-08-24T08:10:09;93461.34;;;27.39;54.66
82388;BME280;72027;47.420;9.310;2023-08-24T08:12:37;93465.78;;;27.65;52.50
82388;BME280;72027;47.420;9.310;2023-08-24T08:15:07;93474.59;;;27.84;51.74
82388;BME280;72027;47.420;9.310;2023-08-24T08:17:35;93467.69;;;27.95;51.35
82388;BME280;72027;47.420;9.310;2023-08-24T08:20:03;93474.66;;;28.02;50.19
82388;BME280;72027;47.420;9.310;2023-08-24T08:22:31;93467.19;;;28.14;49.67
82388;BME280;72027;47.420;9.310;2023-08-24T08:25:02;93469.81;;;28.20;49.02
82388;BME280;72027;47.420;9.310;2023-08-24T08:27:30;93478.09;;;28.25;49.37
82388;BME280;72027;47.420;9.310;2023-08-24T08:29:59;93481.47;;;28.31;49.91
82388;BME280;72027;47.420;9.310;2023-08-24T08:32:29;93480.28;;;28.35;49.57
82388;BME280;72027;47.420;9.310;2023-08-24T08:34:57;93484.44;;;28.41;50.18
82388;BME280;72027;47.420;9.310;2023-08-24T08:37:26;93495.22;;;28.43;48.20
82388;BME280;72027;47.420;9.310;2023-08-24T08:39:54;93500.94;;;28.43;50.77
82388;BME280;72027;47.420;9.310;2023-08-24T08:42:22;93491.59;;;28.50;49.53
82388;BME280;72027;47.420;9.310;2023-08-24T08:44:51;93492.34;;;28.50;49.18
82388;BME280;72027;47.420;9.310;2023-08-24T08:47:20;93496.06;;;28.61;49.27
82388;BME280;72027;47.420;9.310;2023-08-24T08:49:50;93486.09;;;28.69;49.54
82388;BME280;72027;47.420;9.310;2023-08-24T08:52:20;93486.19;;;28.79;49.05
82388;BME280;72027;47.420;9.310;2023-08-24T08:54:47;93484.94;;;28.90;47.91
82388;BME280;72027;47.420;9.310;2023-08-24T08:57:16;93489.22;;;28.98;48.63
82388;BME280;72027;47.420;9.310;2023-08-24T08:59:45;93489.91;;;29.24;48.81
82388;BME280;72027;47.420;9.310;2023-08-24T09:02:14;93486.19;;;29.49;46.79
82388;BME280;72027;47.420;9.310;2023-08-24T09:04:44;93489.47;;;29.45;46.94
82388;BME280;72027;47.420;9.310;2023-08-24T09:07:14;93494.44;;;29.45;47.24
82388;BME280;72027;47.420;9.310;2023-08-24T09:09:42;93490.97;;;29.63;46.86
82388;BME280;72027;47.420;9.310;2023-08-24T09:12:10;93500.75;;;29.88;46.20
82388;BME280;72027;47.420;9.310;2023-08-24T09:14:38;93492.66;;;29.94;44.71
82388;BME280;72027;47.420;9.310;2023-08-24T09:17:06;93497.25;;;29.79;45.15
82388;BME280;72027;47.420;9.310;2023-08-24T09:19:34;93495.81;;;29.71;44.60
82388;BME280;72027;47.420;9.310;2023-08-24T09:22:05;93498.56;;;29.78;45.56
82388;BME280;72027;47.420;9.310;2023-08-24T09:24:36;93497.50;;;29.74;44.94
82388;BME280;72027;47.420;9.310;2023-08-24T09:27:14;93501.94;;;29.84;45.01
82388;BME280;72027;47.420;9.310;2023-08-24T09:29:42;93496.53;;;29.89;45.91
82388;BME280;72027;47.420;9.310;2023-08-24T09:32:10;93489.53;;;29.99;45.65
82388;BME280;72027;47.420;9.310;2023-08-24T09:34:38;93487.56;;;30.29;46.25
82388;BME280;72027;47.420;9.310;2023-08-24T09:37:12;93495.81;;;30.62;46.62
82388;BME280;72027;47.420;9.310;2023-08-24T09:39:42;93486.56;;;30.90;45.71
82388;BME280;72027;47.420;9.310;2023-08-24T09:42:09;93485.25;;;31.21;45.12
82388;BME280;72027;47.420;9.310;2023-08-24T09:44:37;93483.31;;;31.52;44.84
82388;BME280;72027;47.420;9.310;2023-08-24T09:47:09;93485.38;;;31.81;44.63
82388;BME280;72027;47.420;9.310;2023-08-24T09:49:37;93479.00;;;32.02;43.09
82388;BME280;72027;47.420;9.310;2023-08-24T09:52:07;93476.88;;;32.12;40.32
82388;BME280;72027;47.420;9.310;2023-08-24T09:54:37;93467.66;;;32.14;39.87
82388;BME280;72027;47.420;9.310;2023-08-24T09:57:07;93476.53;;;32.18;40.34
82388;BME280;72027;47.420;9.310;2023-08-24T09:59:39;93461.19;;;32.13;41.01
82388;BME280;72027;47.420;9.310;2023-08-24T10:02:18;93466.75;;;32.21;40.47
82388;BME280;72027;47.420;9.310;2023-08-24T10:04:50;93449.06;;;32.24;41.09
82388;BME280;72027;47.420;9.310;2023-08-24T10:07:20;93457.44;;;32.42;40.98
82388;BME280;72027;47.420;9.310;2023-08-24T10:09:55;93450.81;;;32.71;40.15
82388;BME280;72027;47.420;9.310;2023-08-24T10:12:28;93449.47;;;32.93;38.98
82388;BME280;72027;47.420;9.310;2023-08-24T10:15:00;93445.94;;;33.04;38.49
82388;BME280;72027;47.420;9.310;2023-08-24T10:17:29;93443.53;;;33.22;38.15
82388;BME280;72027;47.420;9.310;2023-08-24T10:19:58;93437.84;;;33.34;39.25
82388;BME280;72027;47.420;9.310;2023-08-24T10:22:27;93439.91;;;33.22;38.60
82388;BME280;72027;47.420;9.310;2023-08-24T10:24:56;93426.47;;;33.03;38.13
82388;BME280;72027;47.420;9.310;2023-08-24T10:27:27;93433.97;;;33.08;39.31
82388;BME280;72027;47.420;9.310;2023-08-24T10:29:55;93428.22;;;33.29;39.47
82388;BME280;72027;47.420;9.310;2023-08-24T10:32:24;93421.66;;;33.50;38.23
82388;BME280;72027;47.420;9.310;2023-08-24T10:34:53;93411.97;;;33.55;38.15
82388;BME280;72027;47.420;9.310;2023-08-24T10:37:25;93412.78;;;33.68;38.31
82388;BME280;72027;47.420;9.310;2023-08-24T10:39:54;93410.78;;;33.82;38.49
82388;BME280;72027;47.420;9.310;2023-08-24T10:42:22;93410.94;;;33.96;38.18
82388;BME280;72027;47.420;9.310;2023-08-24T10:44:51;93401.19;;;34.01;37.28
82388;BME280;72027;47.420;9.310;2023-08-24T10:47:19;93403.25;;;34.22;37.95
82388;BME280;72027;47.420;9.310;2023-08-24T10:49:59;93398.97;;;34.47;38.13
82388;BME280;72027;47.420;9.310;2023-08-24T10:52:31;93398.50;;;34.62;38.08
82388;BME280;72027;47.420;9.310;2023-08-24T10:55:01;93403.47;;;34.85;36.97
82388;BME280;72027;47.420;9.310;2023-08-24T10:57:35;93394.56;;;34.93;34.88
82388;BME280;72027;47.420;9.310;2023-08-24T11:00:07;93392.16;;;34.89;35.42
82388;BME280;72027;47.420;9.310;2023-08-24T11:02:43;93393.03;;;35.03;36.85
82388;BME280;72027;47.420;9.310;2023-08-24T11:05:16;93386.22;;;35.22;36.32
82388;BME280;72027;47.420;9.310;2023-08-24T11:07:51;93385.41;;;35.34;36.37
82388;BME280;72027;47.420;9.310;2023-08-24T11:10:20;93384.72;;;35.47;34.76
82388;BME280;72027;47.420;9.310;2023-08-24T11:13:08;93386.19;;;35.60;35.17
82388;BME280;72027;47.420;9.310;2023-08-24T11:15:44;93387.34;;;35.80;34.69
82388;BME280;72027;47.420;9.310;2023-08-24T11:18:14;93383.09;;;35.95;33.80
82388;BME280;72027;47.420;9.310;2023-08-24T11:20:43;93372.25;;;36.07;31.39
82388;BME280;72027;47.420;9.310;2023-08-24T11:23:12;93365.75;;;36.21;31.13
82388;BME280;72027;47.420;9.310;2023-08-24T11:25:40;93364.34;;;36.08;30.33
82388;BME280;72027;47.420;9.310;2023-08-24T11:28:08;93360.72;;;36.07;31.28
82388;BME280;72027;47.420;9.310;2023-08-24T11:30:36;93361.31;;;36.06;31.25
82388;BME280;72027;47.420;9.310;2023-08-24T11:33:05;93354.81;;;36.05;31.33
82388;BME280;72027;47.420;9.310;2023-08-24T11:35:35;93356.56;;;36.10;31.54
82388;BME280;72027;47.420;9.310;2023-08-24T11:38:03;93348.56;;;36.23;31.08
82388;BME280;72027;47.420;9.310;2023-08-24T11:40:31;93348.47;;;36.21;31.48
82388;BME280;72027;47.420;9.310;2023-08-24T11:42:59;93342.34;;;36.14;31.14
82388;BME280;72027;47.420;9.310;2023-08-24T11:45:30;93345.91;;;36.13;32.16
82388;BME280;72027;47.420;9.310;2023-08-24T11:47:58;93346.59;;;36.00;31.58
82388;BME280;72027;47.420;9.310;2023-08-24T11:50:28;93347.44;;;35.88;32.10
82388;BME280;72027;47.420;9.310;2023-08-24T11:52:56;93345.50;;;35.93;33.29
82388;BME280;72027;47.420;9.310;2023-08-24T11:55:26;93347.47;;;36.02;33.75
82388;BME280;72027;47.420;9.310;2023-08-24T11:57:53;93349.94;;;36.22;33.62
82388;BME280;72027;47.420;9.310;2023-08-24T12:00:22;93336.38;;;36.24;31.10
82388;BME280;72027;47.420;9.310;2023-08-24T12:02:51;93342.59;;;36.32;31.64
82388;BME280;72027;47.420;9.310;2023-08-24T12:05:23;93338.44;;;36.49;32.27
82388;BME280;72027;47.420;9.310;2023-08-24T12:07:53;93340.38;;;36.58;31.34
82388;BME280;72027;47.420;9.310;2023-08-24T12:10:21;93343.88;;;36.71;31.22
82388;BME280;72027;47.420;9.310;2023-08-24T12:12:49;93337.88;;;36.67;32.18
82388;BME280;72027;47.420;9.310;2023-08-24T12:15:17;93339.63;;;36.58;32.32
82388;BME280;72027;47.420;9.310;2023-08-24T12:17:47;93337.59;;;36.61;33.00
82388;BME280;72027;47.420;9.310;2023-08-24T12:20:19;93334.56;;;36.72;33.07
82388;BME280;72027;47.420;9.310;2023-08-24T12:22:54;93327.88;;;36.68;32.31
82388;BME280;72027;47.420;9.310;2023-08-24T12:25:22;93332.00;;;36.65;33.37
82388;BME280;72027;47.420;9.310;2023-08-24T12:27:51;93335.75;;;36.67;32.84
82388;BME280;72027;47.420;9.310;2023-08-24T12:30:19;93331.56;;;36.70;31.70
82388;BME280;72027;47.420;9.310;2023-08-24T12:32:48;93335.09;;;36.41;32.38
82388;BME280;72027;47.420;9.310;2023-08-24T12:35:17;93317.25;;;36.17;33.77
82388;BME280;72027;47.420;9.310;2023-08-24T12:37:45;93324.84;;;36.10;34.13
82388;BME280;72027;47.420;9.310;2023-08-24T12:40:14;93319.41;;;36.16;34.47
82388;BME280;72027;47.420;9.310;2023-08-24T12:42:42;93324.84;;;36.38;35.29
82388;BME280;72027;47.420;9.310;2023-08-24T12:45:10;93311.63;;;36.61;35.20
82388;BME280;72027;47.420;9.310;2023-08-24T12:47:38;93312.78;;;36.69;32.49
82388;BME280;72027;47.420;9.310;2023-08-24T12:50:06;93319.28;;;36.70;32.54
82388;BME280;72027;47.420;9.310;2023-08-24T12:52:34;93313.00;;;36.59;31.83
82388;BME280;72027;47.420;9.310;2023-08-24T12:55:02;93305.31;;;36.50;32.63
82388;BME280;72027;47.420;9.310;2023-08-24T12:57:32;93298.91;;;36.52;33.61
82388;BME280;72027;47.420;9.310;2023-08-24T13:00:00;93306.16;;;36.53;33.33
82388;BME280;72027;47.420;9.310;2023-08-24T13:02:27;93303.03;;;36.49;33.04
82388;BME280;72027;47.420;9.310;2023-08-24T13:05:05;93297.94;;;36.61;33.35
82388;BME280;72027;47.420;9.310;2023-08-24T13:07:33;93293.88;;;36.66;33.75
82388;BME280;72027;47.420;9.310;2023-08-24T13:10:02;93281.59;;;36.66;31.79